createdAt,value
2023-03-25T00:02:20.776Z,1.50
2023-03-25T00:07:04.529Z,1.70
2023-03-25T00:11:53.172Z,1.70
2023-03-25T00:16:39.896Z,1.67
2023-03-25T00:21:29.358Z,2.00
2023-03-25T00:26:16.018Z,1.50
2023-03-25T00:31:05.783Z,1.33
2023-03-25T00:35:59.133Z,1.57
2023-03-25T00:40:57.992Z,1.83
2023-03-25T00:45:44.742Z,1.80
2023-03-25T00:50:33.568Z,1.40
2023-03-25T00:55:20.148Z,1.40
2023-03-25T01:00:13.311Z,1.63
2023-03-25T01:04:57.706Z,1.67
2023-03-25T01:09:46.717Z,1.97
2023-03-25T01:14:30.521Z,2.07
2023-03-25T01:19:15.864Z,1.57
2023-03-25T01:24:05.787Z,1.80
2023-03-25T01:28:55.903Z,1.80
2023-03-25T01:33:39.929Z,1.43
2023-03-25T01:38:32.663Z,1.90
2023-03-25T01:43:20.108Z,1.90
2023-03-25T01:48:10.287Z,1.87
2023-03-25T01:52:53.932Z,1.73
2023-03-25T01:57:46.339Z,1.93
2023-03-25T02:02:40.950Z,1.60
2023-03-25T02:07:34.714Z,1.73
2023-03-25T02:12:18.350Z,2.00
2023-03-25T02:17:13.959Z,1.90
2023-03-25T02:22:59.841Z,1.73
2023-03-25T02:28:02.064Z,1.40
2023-03-25T02:33:21.634Z,1.30
2023-03-25T02:38:26.624Z,1.70
2023-03-25T02:43:33.408Z,1.70
2023-03-25T02:48:23.475Z,1.80
2023-03-25T02:53:11.659Z,1.67
2023-03-25T02:57:59.290Z,1.37
2023-03-25T03:02:46.460Z,1.57
2023-03-25T03:07:36.498Z,1.50
2023-03-25T03:12:36.784Z,2.00
2023-03-25T03:17:28.261Z,1.53
2023-03-25T03:22:25.967Z,1.37
2023-03-25T03:27:34.970Z,1.60
2023-03-25T03:32:36.489Z,1.43
2023-03-25T03:37:40.336Z,1.27
2023-03-25T03:42:32.197Z,1.30
2023-03-25T03:47:18.950Z,1.00
2023-03-25T03:52:18.079Z,0.93
2023-03-25T03:57:13.101Z,1.40
2023-03-25T04:02:01.285Z,0.80
2023-03-25T04:07:01.010Z,0.60
2023-03-25T04:12:02.285Z,0.87
2023-03-25T04:16:54.443Z,0.77
2023-03-25T04:21:41.612Z,0.80
2023-03-25T04:26:27.017Z,0.60
2023-03-25T04:31:20.148Z,0.73
2023-03-25T04:36:03.656Z,0.77
2023-03-25T04:40:52.402Z,0.83
2023-03-25T04:45:53.365Z,0.70
2023-03-25T04:50:45.744Z,0.70
2023-03-25T04:55:31.580Z,1.07
2023-03-25T05:00:22.208Z,0.70
2023-03-25T05:05:07.757Z,0.50
2023-03-25T05:09:54.975Z,1.10
2023-03-25T05:14:42.956Z,0.93
2023-03-25T05:19:35.247Z,0.40
2023-03-25T05:24:19.419Z,0.57
2023-03-25T05:29:09.441Z,0.63
2023-03-25T05:33:54.963Z,0.70
2023-03-25T05:38:48.267Z,0.40
2023-03-25T05:43:35.717Z,0.40
2023-03-25T05:48:20.497Z,0.40
2023-03-25T05:53:07.026Z,0.40
2023-03-25T05:57:58.854Z,0.47
2023-03-25T06:02:44.220Z,0.40
2023-03-25T06:07:32.433Z,0.30
2023-03-25T06:12:22.890Z,0.30
2023-03-25T06:17:06.956Z,0.40
2023-03-25T06:21:56.894Z,0.40
2023-03-25T06:26:45.422Z,0.37
2023-03-25T06:31:34.221Z,0.70
2023-03-25T06:36:20.515Z,0.53
2023-03-25T06:41:09.360Z,0.43
2023-03-25T06:45:59.446Z,0.50
2023-03-25T06:50:58.938Z,0.97
2023-03-25T06:55:47.114Z,0.80
2023-03-25T07:00:39.703Z,0.70
2023-03-25T07:05:24.615Z,0.67
2023-03-25T07:10:16.428Z,0.70
2023-03-25T07:15:01.870Z,0.53
2023-03-25T07:19:47.754Z,0.70
2023-03-25T07:24:37.085Z,0.63
2023-03-25T07:29:23.546Z,0.60
2023-03-25T07:34:11.250Z,0.50
2023-03-25T07:39:00.612Z,1.00
2023-03-25T07:43:48.634Z,1.03
2023-03-25T07:48:53.717Z,0.90
2023-03-25T07:53:46.481Z,0.80
2023-03-25T07:58:45.516Z,0.73
2023-03-25T08:03:34.855Z,0.60
2023-03-25T08:08:21.583Z,0.60
2023-03-25T08:13:07.359Z,0.60
2023-03-25T08:18:00.876Z,0.70
2023-03-25T08:22:49.232Z,0.70
2023-03-25T08:27:33.130Z,0.60
2023-03-25T08:32:19.961Z,0.70
2023-03-25T08:37:12.670Z,0.70
2023-03-25T08:41:59.164Z,0.90
2023-03-25T08:46:44.637Z,0.70
2023-03-25T08:51:32.225Z,0.90
2023-03-25T08:56:24.725Z,0.80
2023-03-25T09:01:09.947Z,0.90
2023-03-25T09:05:55.964Z,0.80
2023-03-25T09:10:45.567Z,0.90
2023-03-25T09:15:32.333Z,0.50
2023-03-25T09:20:20.812Z,0.80
2023-03-25T09:25:08.114Z,0.60
2023-03-25T09:29:59.239Z,0.70
2023-03-25T09:34:46.017Z,0.70
2023-03-25T09:39:34.448Z,0.80
2023-03-25T09:44:38.278Z,1.00
2023-03-25T09:49:38.670Z,0.90
2023-03-25T09:54:31.015Z,0.80
2023-03-25T09:59:21.052Z,0.93
2023-03-25T10:04:50.523Z,1.10
2023-03-25T10:09:55.643Z,1.40
2023-03-25T10:15:03.350Z,1.30
2023-03-25T10:20:06.915Z,0.77
2023-03-25T10:24:57.028Z,1.17
2023-03-25T10:29:44.434Z,1.00
2023-03-25T10:34:42.927Z,0.50
2023-03-25T10:39:37.416Z,0.70
2023-03-25T10:44:23.884Z,0.67
2023-03-25T10:49:09.069Z,0.87
2023-03-25T10:53:56.968Z,0.50
2023-03-25T10:58:46.650Z,0.50
2023-03-25T11:03:35.601Z,0.43
2023-03-25T11:08:25.496Z,0.47
2023-03-25T11:13:25.820Z,0.50
2023-03-25T11:18:17.093Z,0.50
2023-03-25T11:23:14.418Z,0.60
2023-03-25T11:28:24.849Z,0.60
2023-03-25T11:33:38.422Z,0.50
2023-03-25T11:38:32.870Z,0.77
2023-03-25T11:43:22.560Z,0.50
2023-03-25T11:48:41.992Z,0.30
2023-03-25T11:53:28.404Z,0.40
2023-03-25T11:58:18.545Z,0.30
2023-03-25T12:03:23.003Z,0.47
2023-03-25T12:09:04.535Z,0.70
2023-03-25T12:14:10.552Z,0.30
2023-03-25T12:19:17.359Z,0.30
2023-03-25T12:24:25.784Z,0.33
2023-03-25T12:29:43.066Z,0.50
2023-03-25T12:34:49.436Z,0.30
2023-03-25T12:39:53.556Z,0.50
2023-03-25T12:45:06.717Z,0.60
2023-03-25T12:50:23.930Z,0.27
2023-03-25T12:55:32.056Z,3.47
2023-03-25T13:00:50.751Z,1.30
2023-03-25T13:05:46.209Z,0.40
2023-03-25T13:10:47.368Z,0.70
2023-03-25T13:15:46.878Z,0.40
2023-03-25T13:20:51.762Z,0.50
2023-03-25T13:25:57.554Z,0.50
2023-03-25T13:30:48.614Z,0.50
2023-03-25T13:35:47.839Z,0.60
2023-03-25T13:40:53.306Z,0.50
2023-03-25T13:45:56.301Z,0.40
2023-03-25T13:50:43.512Z,1.03
2023-03-25T13:55:35.137Z,0.60
2023-03-25T14:00:50.263Z,0.97
2023-03-25T14:05:54.523Z,0.80
2023-03-25T14:11:02.145Z,0.80
2023-03-25T14:16:06.300Z,0.60
2023-03-25T14:20:51.846Z,0.90
2023-03-25T14:25:41.601Z,1.10
2023-03-25T14:30:29.772Z,1.10
2023-03-25T14:36:08.008Z,1.00
2023-03-25T14:41:05.268Z,0.50
2023-03-25T14:46:26.797Z,0.40
2023-03-25T14:51:37.008Z,0.40
2023-03-25T14:56:26.864Z,0.30
2023-03-25T15:01:37.560Z,0.60
2023-03-25T15:06:33.873Z,0.33
2023-03-25T15:11:20.214Z,1.37
2023-03-25T15:16:07.377Z,0.70
2023-03-25T15:20:53.971Z,0.87
2023-03-25T15:25:39.621Z,0.50
2023-03-25T15:30:58.257Z,0.77
2023-03-25T15:36:16.654Z,0.50
2023-03-25T15:41:46.093Z,0.40
2023-03-25T15:47:20.878Z,0.60
2023-03-25T15:52:24.859Z,0.73
2023-03-25T15:57:38.338Z,0.60
2023-03-25T16:02:47.947Z,0.50
2023-03-25T16:07:35.468Z,0.70
2023-03-25T16:12:24.214Z,0.60
2023-03-25T16:17:08.991Z,0.63
2023-03-25T16:21:56.539Z,0.93
2023-03-25T16:26:46.617Z,0.87
2023-03-25T16:31:46.472Z,1.13
2023-03-25T16:36:36.373Z,0.60
2023-03-25T16:41:28.940Z,0.70
2023-03-25T16:46:16.074Z,0.70
2023-03-25T16:51:04.327Z,0.90
2023-03-25T16:55:51.028Z,1.30
2023-03-25T17:00:50.906Z,1.60
2023-03-25T17:06:13.231Z,3.00
2023-03-25T17:11:02.099Z,1.80
2023-03-25T17:15:52.351Z,1.70
2023-03-25T17:20:52.398Z,1.87
2023-03-25T17:26:02.649Z,2.30
2023-03-25T17:31:02.219Z,1.50
2023-03-25T17:35:54.259Z,1.77
2023-03-25T17:40:40.313Z,1.37
2023-03-25T17:45:27.083Z,1.40
2023-03-25T17:50:18.721Z,0.80
2023-03-25T17:55:22.744Z,0.87
2023-03-25T18:00:22.240Z,0.97
2023-03-25T18:05:11.882Z,1.23
2023-03-25T18:09:55.747Z,1.20
2023-03-25T18:14:44.523Z,1.10
2023-03-25T18:19:33.402Z,1.23
2023-03-25T18:31:17.380Z,1.20
2023-03-25T18:36:06.772Z,1.30
2023-03-25T18:40:53.885Z,1.00
2023-03-25T18:45:39.934Z,0.87
2023-03-25T18:50:32.602Z,1.13
2023-03-25T18:55:17.897Z,1.17
2023-03-25T19:00:24.858Z,0.80
2023-03-25T19:05:10.528Z,0.87
2023-03-25T19:09:57.370Z,1.00
2023-03-25T19:14:47.635Z,1.27
2023-03-25T19:19:31.440Z,0.93
2023-03-25T19:24:50.896Z,1.20
2023-03-25T19:30:01.383Z,1.13
2023-03-25T19:34:46.622Z,1.10
2023-03-25T19:39:33.635Z,0.90
2023-03-25T19:44:20.782Z,0.83
2023-03-25T19:49:09.589Z,0.63
2023-03-25T19:53:59.680Z,0.90
2023-03-25T19:58:43.948Z,0.57
2023-03-25T20:03:53.018Z,0.93
2023-03-25T20:08:39.545Z,1.07
2023-03-25T20:13:23.674Z,0.80
2023-03-25T20:24:10.150Z,0.87
2023-03-25T20:29:43.950Z,0.87
2023-03-25T20:41:26.967Z,0.60
2023-03-25T20:46:26.833Z,0.60
2023-03-25T20:51:49.744Z,0.60
2023-03-25T20:56:38.515Z,0.50
2023-03-25T21:01:22.378Z,0.97
2023-03-25T21:06:28.483Z,1.27
2023-03-25T21:11:19.687Z,1.10
2023-03-25T21:16:05.954Z,1.10
2023-03-25T21:20:53.036Z,1.03
2023-03-25T21:25:41.218Z,1.40
2023-03-25T21:30:27.903Z,2.43
2023-03-25T21:35:38.325Z,2.17
2023-03-25T21:40:22.883Z,1.27
2023-03-25T21:45:09.793Z,1.30
2023-03-25T21:49:56.831Z,1.17
2023-03-25T21:54:58.894Z,1.40
2023-03-25T21:59:49.597Z,1.37
2023-03-25T22:04:41.224Z,1.10
2023-03-25T22:09:25.729Z,1.10
2023-03-25T22:14:44.645Z,0.90
2023-03-25T22:25:07.018Z,1.57
2023-03-25T22:30:10.579Z,1.10
2023-03-25T22:35:05.845Z,1.00
2023-03-25T22:39:52.903Z,1.03
2023-03-25T22:44:36.831Z,1.00
2023-03-25T22:49:40.794Z,1.60
2023-03-25T22:54:40.856Z,1.03
2023-03-25T22:59:31.897Z,0.90
2023-03-25T23:04:24.011Z,0.80
2023-03-25T23:09:10.838Z,1.23
2023-03-25T23:13:59.094Z,1.00
2023-03-25T23:18:46.460Z,0.77
2023-03-25T23:23:33.350Z,0.90
2023-03-25T23:28:19.988Z,1.20
2023-03-25T23:33:09.606Z,1.10
2023-03-25T23:37:56.085Z,0.70
2023-03-25T23:42:47.696Z,1.03
2023-03-25T23:47:31.425Z,1.10
2023-03-25T23:52:21.560Z,1.20
2023-03-25T23:57:09.225Z,1.30
